Time;durP1;ratioP1;P1;durP2;ratioP2;P2;SDS_P1;SDS_P2;PMS_P1;PMS_P2;Temp;Humidity;BMP_temperature;BMP_pressure;BME280_temperature;BME280_humidity;BME280_pressure;Samples;Min_cycle;Max_cycle;Signal;HPM_P1;HPM_P2
2022/08/08 00:02:27;;;;;;;23.90;8.80;;;;;;;23.97;46.07;99372.64;24940;1315;3052094;-57
2022/08/08 00:05:15;;;;;;;22.60;10.00;;;;;;;23.94;46.36;99373.58;25046;1318;3055377;-58
2022/08/08 00:08:07;;;;;;;24.20;9.30;;;;;;;23.90;46.53;99373.27;25064;1316;3054851;-59
2022/08/08 00:10:56;;;;;;;22.50;9.40;;;;;;;23.86;46.54;99377.71;24989;1316;3056653;-60
2022/08/08 00:13:30;;;;;;;32.70;10.20;;;;;;;23.84;46.69;99385.58;25102;1313;3050260;-58
2022/08/08 00:16:43;;;;;;;23.80;8.80;;;;;;;23.80;46.74;99380.84;25088;1312;3055290;-60
2022/08/08 00:19:24;;;;;;;24.60;8.90;;;;;;;23.77;46.89;99383.15;25083;1315;3054682;-59
2022/08/08 00:22:01;;;;;;;23.50;8.20;;;;;;;23.76;46.84;99384.73;25029;1312;3071389;-61
2022/08/08 00:24:37;;;;;;;23.50;8.50;;;;;;;23.73;46.90;99383.42;25031;1313;3051567;-60
2022/08/08 00:27:09;;;;;;;18.90;8.60;;;;;;;23.73;47.01;99382.17;25114;1316;3055034;-60
2022/08/08 00:29:52;;;;;;;30.30;11.20;;;;;;;23.74;46.77;99385.49;25085;1313;3026323;-60
2022/08/08 00:32:24;;;;;;;20.90;10.70;;;;;;;23.73;46.87;99383.45;25058;1313;3058925;-60
2022/08/08 00:38:04;;;;;;;25.80;10.60;;;;;;;23.64;47.46;99384.83;25051;1313;3055632;-61
2022/08/08 00:40:38;;;;;;;26.90;10.80;;;;;;;23.61;47.63;99380.00;25038;1313;3052843;-61
2022/08/08 00:43:13;;;;;;;22.00;10.60;;;;;;;23.57;47.48;99382.11;25077;1313;3069532;-62
2022/08/08 00:45:47;;;;;;;23.30;11.70;;;;;;;23.53;47.69;99375.23;25071;1313;3049696;-60
2022/08/08 00:48:51;;;;;;;26.80;10.60;;;;;;;23.49;47.76;99374.66;25086;1313;3054882;-59
2022/08/08 00:51:35;;;;;;;26.90;10.20;;;;;;;23.44;47.75;99374.78;25070;1313;3055751;-58
2022/08/08 00:54:22;;;;;;;23.50;10.40;;;;;;;23.40;47.77;99375.25;25088;1313;3059524;-60
2022/08/08 00:56:55;;;;;;;28.20;11.00;;;;;;;23.38;47.91;99374.87;25107;1313;3051891;-61
2022/08/08 00:59:49;;;;;;;33.70;12.20;;;;;;;23.36;48.14;99372.61;25076;1313;3027050;-59
2022/08/08 01:02:35;;;;;;;26.30;12.80;;;;;;;23.31;48.20;99371.88;25149;1313;3052282;-60
2022/08/08 01:05:29;;;;;;;29.00;12.60;;;;;;;23.28;48.33;99370.22;25143;1315;3068890;-59
2022/08/08 01:08:22;;;;;;;26.10;12.10;;;;;;;23.23;48.19;99371.16;25819;1315;3049528;-59
2022/08/08 01:11:22;;;;;;;31.70;11.90;;;;;;;23.17;48.52;99370.69;25935;1312;3055327;-61
2022/08/08 01:14:30;;;;;;;24.20;9.20;;;;;;;23.03;48.47;99368.80;25957;1312;3052734;-59
2022/08/08 01:17:02;;;;;;;24.00;9.00;;;;;;;22.94;48.65;99368.78;25242;1316;3056038;-58
2022/08/08 01:19:59;;;;;;;26.60;10.00;;;;;;;22.89;49.20;99368.81;25025;1316;3026524;-60
2022/08/08 01:23:11;;;;;;;23.50;9.10;;;;;;;22.88;49.36;99370.86;25102;1316;3051849;-61
2022/08/08 01:26:00;;;;;;;14.70;8.80;;;;;;;22.92;49.19;99375.46;25062;1313;3052026;-58
2022/08/08 01:28:58;;;;;;;20.60;9.00;;;;;;;22.88;49.58;99375.88;25099;1316;3069682;-60
2022/08/08 01:31:46;;;;;;;17.40;8.10;;;;;;;22.88;49.54;99372.48;25049;1313;3051748;-61
2022/08/08 01:34:24;;;;;;;20.20;7.80;;;;;;;22.83;50.05;99376.08;25045;1313;3055507;-60
2022/08/08 01:37:13;;;;;;;14.70;7.50;;;;;;;22.73;50.17;99373.64;25114;1313;3052705;-59
2022/08/08 01:40:08;;;;;;;18.60;7.30;;;;;;;22.63;51.14;99382.83;25101;1315;3058481;-60
2022/08/08 01:42:52;;;;;;;14.00;6.60;;;;;;;22.58;51.93;99379.26;25102;1316;3052308;-60
2022/08/08 01:45:42;;;;;;;23.10;6.70;;;;;;;22.53;52.09;99382.25;25110;1313;3053639;-60
2022/08/08 01:48:25;;;;;;;15.10;6.60;;;;;;;22.51;52.22;99388.61;25062;1316;3053980;-60
2022/08/08 01:51:13;;;;;;;18.80;7.00;;;;;;;22.47;52.15;99389.57;25053;1313;3071801;-59
2022/08/08 01:53:45;;;;;;;15.80;6.40;;;;;;;22.37;51.90;99394.31;25090;1313;3048844;-60
2022/08/08 01:56:18;;;;;;;13.90;5.00;;;;;;;22.27;52.01;99391.95;25128;1315;3026891;-60
2022/08/08 01:59:13;;;;;;;14.30;6.00;;;;;;;22.11;51.66;99391.92;25026;1319;3026321;-59
2022/08/08 02:02:03;;;;;;;9.20;5.70;;;;;;;22.19;51.71;99394.42;25043;1313;3059543;-60
2022/08/08 02:04:49;;;;;;;14.80;6.50;;;;;;;22.21;52.42;99394.92;25075;1313;3050202;-60
2022/08/08 02:07:58;;;;;;;19.20;6.40;;;;;;;22.06;53.05;99397.11;25103;1313;3055420;-62
2022/08/08 02:10:53;;;;;;;15.20;6.50;;;;;;;22.00;53.95;99401.85;25046;1316;3054434;-60
2022/08/08 02:13:55;;;;;;;21.40;7.00;;;;;;;21.88;55.17;99403.76;25090;1313;3069434;-61
2022/08/08 02:16:43;;;;;;;20.00;7.30;;;;;;;21.83;54.85;99403.01;25042;1317;3049626;-58
2022/08/08 02:19:33;;;;;;;13.00;7.00;;;;;;;21.82;54.36;99403.99;25120;1313;3053388;-60
2022/08/08 02:22:38;;;;;;;19.70;7.00;;;;;;;21.84;54.36;99406.17;24974;1319;3054967;-60
2022/08/08 02:25:28;;;;;;;10.10;5.90;;;;;;;21.88;54.07;99403.52;25102;1313;3058755;-58
2022/08/08 02:28:21;;;;;;;17.30;6.50;;;;;;;21.84;54.38;99407.83;25078;1313;3050109;-61
2022/08/08 02:30:59;;;;;;;15.30;5.80;;;;;;;21.73;55.23;99407.34;25091;1316;3055206;-61
2022/08/08 02:34:12;;;;;;;10.60;5.10;;;;;;;21.64;54.54;99407.48;25096;1316;3053881;-60
2022/08/08 02:36:53;;;;;;;18.70;7.30;;;;;;;21.61;54.27;99406.43;25041;1313;3071579;-59
2022/08/08 02:39:25;;;;;;;19.40;6.30;;;;;;;21.58;54.07;99407.80;25111;1313;3050679;-60
2022/08/08 02:42:09;;;;;;;19.30;7.00;;;;;;;21.57;54.08;99408.76;25084;1313;3053993;-62
2022/08/08 02:45:01;;;;;;;14.10;5.80;;;;;;;21.58;54.17;99414.01;25101;1313;3055123;-60
2022/08/08 02:47:36;;;;;;;9.70;5.90;;;;;;;21.53;53.97;99414.93;25096;1313;3058578;-58
2022/08/08 02:50:11;;;;;;;13.90;6.40;;;;;;;21.52;53.89;99413.84;25066;1313;3026283;-60
2022/08/08 02:52:54;;;;;;;18.70;6.80;;;;;;;21.54;53.89;99417.37;25105;1313;3053802;-60
2022/08/08 02:55:24;;;;;;;18.00;6.90;;;;;;;21.63;54.07;99420.12;25071;1315;3056269;-60
2022/08/08 02:58:19;;;;;;;15.10;6.60;;;;;;;21.70;53.79;99421.20;25057;1316;3026178;-58
2022/08/08 03:01:13;;;;;;;;;;;;;;;21.78;52.76;99423.02;25092;1312;3055482;-58
2022/08/08 03:04:15;;;;;;;14.70;6.40;;;;;;;21.78;53.11;99424.70;25120;1313;3051726;-60
2022/08/08 03:07:06;;;;;;;18.30;6.30;;;;;;;21.80;52.69;99427.59;25094;1313;3071102;-59
2022/08/08 03:09:50;;;;;;;24.50;7.40;;;;;;;21.83;52.70;99432.06;25100;1313;3051065;-58
2022/08/08 03:12:35;;;;;;;17.00;6.60;;;;;;;21.84;52.46;99426.92;25066;1314;3054778;-59
2022/08/08 03:15:08;;;;;;;19.40;6.70;;;;;;;21.87;52.36;99424.35;25035;1319;3055229;-58
2022/08/08 03:17:41;;;;;;;17.40;6.60;;;;;;;21.89;52.11;99432.88;25035;1320;3059141;-60
2022/08/08 03:20:12;;;;;;;18.30;6.40;;;;;;;21.92;51.79;99433.54;25090;1315;3027222;-60
2022/08/08 03:22:50;;;;;;;22.20;7.00;;;;;;;21.98;51.76;99437.75;25042;1313;3055533;-61
2022/08/08 03:25:21;;;;;;;19.10;6.70;;;;;;;21.99;52.04;99437.79;25110;1313;3050911;-60
2022/08/08 03:27:58;;;;;;;;;;;;;;;22.02;51.95;99441.35;25078;1316;3068416;-59
2022/08/08 03:30:29;;;;;;;14.30;5.90;;;;;;;22.04;52.19;99443.36;25083;1313;3048499;-59
2022/08/08 03:33:17;;;;;;;15.90;6.40;;;;;;;22.08;51.99;99444.53;25087;1315;3026496;-59
2022/08/08 03:35:48;;;;;;;23.30;6.70;;;;;;;22.09;52.09;99449.34;25116;1313;3053831;-58
2022/08/08 03:38:21;;;;;;;30.00;6.90;;;;;;;22.12;52.05;99453.29;25038;1316;3026907;-60
2022/08/08 03:40:51;;;;;;;13.10;6.90;;;;;;;22.17;52.05;99457.44;25119;1313;3028825;-60
2022/08/08 03:43:20;;;;;;;20.10;7.80;;;;;;;22.20;52.08;99457.46;25083;1316;3026809;-59
2022/08/08 03:45:54;;;;;;;19.50;7.20;;;;;;;22.20;52.24;99460.30;25061;1313;3054033;-61
2022/08/08 03:48:24;;;;;;;19.50;6.70;;;;;;;22.23;52.05;99459.80;25053;1314;3026660;-59
2022/08/08 03:50:53;;;;;;;15.00;7.20;;;;;;;22.28;52.04;99461.86;25130;1313;3053349;-59
2022/08/08 03:53:23;;;;;;;24.90;8.00;;;;;;;22.33;52.48;99465.13;25112;1313;3026974;-59
2022/08/08 03:55:52;;;;;;;13.90;7.20;;;;;;;22.37;52.44;99462.81;25064;1316;3026922;-61
2022/08/08 03:58:23;;;;;;;19.50;7.80;;;;;;;22.39;52.38;99468.33;25060;1319;3027375;-58
2022/08/08 04:00:56;;;;;;;15.80;6.90;;;;;;;22.43;52.98;99467.95;25058;1317;3054578;-58
2022/08/08 04:03:34;;;;;;;25.30;7.80;;;;;;;22.45;52.81;99474.70;25071;1316;3026304;-61
2022/08/08 04:06:05;;;;;;;17.00;7.70;;;;;;;22.51;53.23;99478.94;25060;1313;3058451;-60
2022/08/08 04:08:36;;;;;;;21.50;7.50;;;;;;;22.52;54.25;99477.02;25037;1315;3026275;-60
2022/08/08 04:11:21;;;;;;;21.10;8.30;;;;;;;22.55;53.73;99478.33;25095;1313;3055387;-61
2022/08/08 04:13:50;;;;;;;18.50;7.60;;;;;;;22.56;54.01;99477.45;25078;1316;3026740;-58
2022/08/08 04:16:19;;;;;;;16.60;7.80;;;;;;;22.60;53.88;99481.30;25057;1319;3051498;-59
2022/08/08 04:18:49;;;;;;;23.50;8.60;;;;;;;22.63;54.16;99484.92;25096;1313;3026647;-60
2022/08/08 04:21:21;;;;;;;24.50;9.60;;;;;;;22.66;54.00;99486.22;25092;1313;3029846;-59
2022/08/08 04:23:51;;;;;;;14.50;8.10;;;;;;;22.60;54.71;99489.18;25114;1313;3028296;-59
2022/08/08 04:26:20;;;;;;;15.20;8.00;;;;;;;22.64;54.36;99489.04;25089;1313;3054761;-58
2022/08/08 04:28:49;;;;;;;22.70;8.40;;;;;;;22.71;54.35;99495.63;25114;1316;3027064;-61
2022/08/08 04:31:18;;;;;;;22.90;8.70;;;;;;;22.78;54.35;99498.98;25042;1313;3051612;-60
2022/08/08 04:33:47;;;;;;;19.40;7.90;;;;;;;22.85;54.26;99502.68;25115;1313;3026590;-61
2022/08/08 04:36:16;;;;;;;21.70;8.60;;;;;;;22.92;53.83;99503.39;25039;1313;3055533;-57
2022/08/08 04:38:45;;;;;;;19.00;8.20;;;;;;;22.99;53.92;99504.31;25078;1316;3026555;-58
2022/08/08 04:41:14;;;;;;;28.30;9.10;;;;;;;23.05;53.87;99508.40;25047;1313;3054367;-59
2022/08/08 04:43:43;;;;;;;18.70;8.40;;;;;;;23.11;53.73;99503.49;25060;1313;3026623;-61
2022/08/08 04:46:13;;;;;;;20.10;8.90;;;;;;;23.15;53.73;99510.95;25037;1313;3026881;-61
2022/08/08 04:48:42;;;;;;;27.00;9.40;;;;;;;23.18;53.79;99515.42;25080;1316;3026496;-59
2022/08/08 04:51:12;;;;;;;23.60;9.50;;;;;;;23.24;53.86;99513.48;25130;1313;3059280;-59
2022/08/08 04:53:41;;;;;;;16.20;8.10;;;;;;;23.29;54.00;99513.27;25052;1313;3027408;-60
2022/08/08 04:56:11;;;;;;;25.70;8.90;;;;;;;23.33;54.03;99516.64;25077;1313;3055232;-59
2022/08/08 04:58:40;;;;;;;26.10;9.70;;;;;;;23.39;53.84;99518.87;25094;1313;3026567;-62
2022/08/08 05:01:10;;;;;;;25.60;9.00;;;;;;;23.43;53.84;99521.30;25051;1313;3026825;-60
2022/08/08 05:03:40;;;;;;;21.70;8.30;;;;;;;23.49;53.55;99519.73;25039;1313;3027998;-58
2022/08/08 05:06:09;;;;;;;23.90;9.00;;;;;;;23.56;53.26;99516.77;25054;1313;3026223;-61
2022/08/08 05:08:38;;;;;;;25.40;8.20;;;;;;;23.63;52.85;99518.29;25190;1313;3026483;-60
2022/08/08 05:11:12;;;;;;;17.80;7.50;;;;;;;23.73;52.14;99524.93;25042;1316;3026681;-60
2022/08/08 05:13:42;;;;;;;19.40;8.70;;;;;;;23.81;52.01;99522.36;25073;1316;3053605;-58
2022/08/08 05:16:12;;;;;;;19.50;8.20;;;;;;;23.88;52.13;99520.29;25036;1313;3026546;-58
2022/08/08 05:18:41;;;;;;;17.40;7.50;;;;;;;23.98;51.97;99520.30;25093;1313;3026874;-61
2022/08/08 05:21:10;;;;;;;15.80;7.50;;;;;;;24.07;51.78;99527.81;25051;1316;3027357;-60
2022/08/08 05:23:39;;;;;;;21.30;7.90;;;;;;;24.18;51.09;99526.52;25087;1313;3068927;-61
2022/08/08 05:26:08;;;;;;;19.80;7.20;;;;;;;24.26;49.98;99522.55;25095;1313;3026100;-60
2022/08/08 05:28:37;;;;;;;19.80;7.50;;;;;;;24.33;49.77;99520.45;25039;1316;3027042;-60
2022/08/08 05:31:06;;;;;;;13.50;7.40;;;;;;;24.41;49.11;99525.91;25079;1317;3070685;-58
2022/08/08 05:33:36;;;;;;;13.90;6.60;;;;;;;24.51;48.64;99526.18;25058;1313;3026651;-63
2022/08/08 05:36:05;;;;;;;21.40;6.80;;;;;;;24.60;47.64;99523.86;25058;1316;3026410;-59
2022/08/08 05:38:35;;;;;;;18.50;6.80;;;;;;;24.69;47.10;99525.35;25096;1316;3026349;-62
2022/08/08 05:41:10;;;;;;;21.70;6.60;;;;;;;24.83;47.27;99527.20;25111;1313;3049330;-61
2022/08/08 05:43:39;;;;;;;17.90;7.90;;;;;;;24.93;46.54;99524.15;25005;1313;3026227;-60
2022/08/08 05:46:10;;;;;;;18.10;6.60;;;;;;;25.04;46.22;99525.47;25048;1313;3070087;-61
2022/08/08 05:48:42;;;;;;;25.00;7.50;;;;;;;25.14;46.17;99526.09;25065;1313;3026279;-62
2022/08/08 05:51:13;;;;;;;22.60;7.50;;;;;;;25.26;46.08;99526.66;25043;1315;3026640;-59
2022/08/08 05:53:44;;;;;;;21.50;7.20;;;;;;;25.36;46.05;99524.95;25071;1313;3026541;-58
2022/08/08 05:56:13;;;;;;;14.90;7.20;;;;;;;25.46;45.80;99525.66;25072;1313;3027352;-63
2022/08/08 05:58:43;;;;;;;18.20;7.00;;;;;;;25.55;45.38;99524.42;25003;1315;3026633;-59
2022/08/08 06:01:13;;;;;;;21.80;6.80;;;;;;;25.64;44.86;99522.59;25073;1316;3026523;-61
2022/08/08 06:03:42;;;;;;;14.50;6.50;;;;;;;25.74;44.10;99521.64;25078;1313;3026762;-59
2022/08/08 06:06:11;;;;;;;18.00;7.00;;;;;;;25.84;44.36;99523.00;25026;1313;3028990;-63
2022/08/08 06:08:43;;;;;;;16.40;7.00;;;;;;;25.93;43.97;99523.63;25078;1313;3026654;-60
2022/08/08 06:11:12;;;;;;;14.50;7.20;;;;;;;26.02;43.98;99526.52;25130;1313;3051546;-60
2022/08/08 06:13:41;;;;;;;18.80;7.20;;;;;;;26.09;43.76;99523.03;25064;1313;3026887;-59
2022/08/08 06:16:12;;;;;;;22.50;7.30;;;;;;;26.19;43.65;99523.54;25087;1313;3054899;-61
2022/08/08 06:18:59;;;;;;;27.50;6.70;;;;;;;26.28;43.18;99526.48;25065;1315;3054172;-60
2022/08/08 06:21:29;;;;;;;22.50;7.40;;;;;;;26.39;42.79;99531.88;25127;1313;3030279;-60
2022/08/08 06:24:00;;;;;;;21.20;7.00;;;;;;;26.49;42.77;99532.31;25053;1313;3026233;-59
2022/08/08 06:26:30;;;;;;;23.40;8.50;;;;;;;26.56;43.42;99531.55;25107;1316;3027422;-61
2022/08/08 06:29:04;;;;;;;13.40;7.20;;;;;;;26.63;43.62;99536.98;25071;1313;3026463;-61
2022/08/08 06:31:36;;;;;;;19.90;7.80;;;;;;;26.71;43.53;99537.77;25101;1313;3057872;-62
2022/08/08 06:34:18;;;;;;;20.60;8.30;;;;;;;26.80;43.41;99538.63;25085;1312;3026471;-58
2022/08/08 06:36:49;;;;;;;22.50;8.10;;;;;;;26.83;42.91;99535.66;25074;1316;3056162;-61
2022/08/08 06:39:18;;;;;;;33.00;9.40;;;;;;;26.86;42.99;99536.96;25080;1313;3026306;-59
2022/08/08 06:41:56;;;;;;;21.60;8.00;;;;;;;26.89;42.65;99539.63;25005;1316;3026807;-61
2022/08/08 06:44:28;;;;;;;19.00;8.30;;;;;;;26.95;42.47;99540.23;25101;1312;3050563;-62
2022/08/08 06:46:58;;;;;;;25.90;8.60;;;;;;;27.03;42.34;99541.38;25080;1313;3026800;-59
2022/08/08 06:49:28;;;;;;;25.10;9.50;;;;;;;27.06;41.98;99536.66;25070;1313;3027199;-59
2022/08/08 06:51:57;;;;;;;27.70;10.40;;;;;;;27.11;41.75;99539.46;25104;1312;3026346;-61
2022/08/08 06:54:26;;;;;;;24.60;10.20;;;;;;;27.19;42.06;99540.62;25052;1316;3054050;-61
2022/08/08 06:56:55;;;;;;;22.40;9.40;;;;;;;27.28;41.44;99537.22;25068;1315;3026471;-61
2022/08/08 06:59:24;;;;;;;29.80;10.80;;;;;;;27.38;40.43;99534.39;25168;1313;3026386;-59
2022/08/08 07:02:00;;;;;;;28.30;10.90;;;;;;;27.43;40.82;99534.29;25036;1313;3054788;-59
2022/08/08 07:04:43;;;;;;;34.30;12.40;;;;;;;27.46;40.90;99536.62;25039;1316;3027498;-59
2022/08/08 07:07:15;;;;;;;22.20;11.60;;;;;;;27.49;41.33;99538.41;25158;1313;3056991;-61
2022/08/08 07:10:01;;;;;;;30.80;11.50;;;;;;;27.53;41.17;99541.25;25116;1316;3049756;-63
2022/08/08 07:12:43;;;;;;;36.60;13.10;;;;;;;27.66;40.75;99542.08;25150;1313;3056833;-62
2022/08/08 07:15:14;;;;;;;47.50;13.70;;;;;;;27.69;40.61;99540.73;25111;1313;3054641;-61
2022/08/08 07:17:49;;;;;;;29.70;13.10;;;;;;;27.78;41.02;99541.54;25105;1313;3026580;-60
2022/08/08 07:20:21;;;;;;;33.20;14.10;;;;;;;27.88;41.26;99545.51;25095;1313;3048314;-61
2022/08/08 07:22:59;;;;;;;38.10;14.20;;;;;;;27.85;41.16;99541.80;25143;1313;3026333;-60
2022/08/08 07:25:33;;;;;;;45.50;14.00;;;;;;;27.90;41.27;99542.96;25132;1313;3055268;-60
2022/08/08 07:28:10;;;;;;;38.00;13.60;;;;;;;28.02;40.88;99544.73;25088;1313;3055629;-60
2022/08/08 07:30:40;;;;;;;36.60;13.90;;;;;;;28.09;40.32;99542.74;25049;1313;3050952;-60
2022/08/08 07:33:11;;;;;;;37.60;12.90;;;;;;;28.16;40.55;99544.84;25135;1312;3026855;-62
2022/08/08 07:35:43;;;;;;;31.50;11.20;;;;;;;28.15;40.11;99550.56;25123;1313;3026626;-59
2022/08/08 07:38:13;;;;;;;29.70;9.50;;;;;;;28.19;39.86;99547.15;25162;1313;3026722;-60
2022/08/08 07:40:45;;;;;;;25.00;8.10;;;;;;;28.30;39.68;99550.49;25079;1313;3026557;-61
2022/08/08 07:43:15;;;;;;;20.70;7.70;;;;;;;28.35;39.18;99549.74;25124;1313;3026384;-59
2022/08/08 07:45:50;;;;;;;28.50;8.50;;;;;;;28.45;39.21;99549.58;25150;1313;3052303;-58
2022/08/08 07:48:20;;;;;;;26.60;7.40;;;;;;;28.55;39.00;99554.20;25085;1313;3026503;-60
2022/08/08 07:50:49;;;;;;;21.60;7.50;;;;;;;28.67;38.51;99552.16;25159;1313;3029851;-60
2022/08/08 07:53:24;;;;;;;29.30;7.50;;;;;;;28.83;38.66;99551.38;25160;1313;3054659;-61
2022/08/08 07:55:54;;;;;;;30.10;7.00;;;;;;;28.87;38.84;99554.55;25062;1313;3059007;-63
2022/08/08 07:58:42;;;;;;;21.70;6.30;;;;;;;28.94;37.99;99551.46;25137;1313;3028092;-61
2022/08/08 08:01:14;;;;;;;30.00;6.90;;;;;;;29.04;37.62;99556.70;25078;1313;3055431;-59
2022/08/08 08:04:01;;;;;;;24.40;7.50;;;;;;;29.14;37.93;99557.16;25136;1313;3051759;-58
2022/08/08 08:06:32;;;;;;;25.00;8.10;;;;;;;29.30;38.06;99555.67;25123;1313;3068768;-63
2022/08/08 08:09:08;;;;;;;29.10;9.40;;;;;;;29.44;37.34;99557.75;25124;1313;3026502;-61
2022/08/08 08:11:39;;;;;;;51.60;15.90;;;;;;;29.57;36.67;99556.98;25130;1313;3052629;-60
2022/08/08 08:14:10;;;;;;;42.00;14.80;;;;;;;29.71;36.43;99561.42;25094;1312;3029568;-60
2022/08/08 08:16:46;;;;;;;42.00;13.60;;;;;;;29.84;36.23;99558.86;25086;1313;3058644;-61
2022/08/08 08:19:16;;;;;;;34.60;13.10;;;;;;;29.96;36.44;99553.55;25019;1313;3026992;-62
2022/08/08 08:21:47;;;;;;;36.30;11.80;;;;;;;30.07;36.44;99555.10;25059;1313;3027016;-60
2022/08/08 08:24:24;;;;;;;33.10;11.20;;;;;;;30.16;35.87;99556.26;25162;1313;3051125;-61
2022/08/08 08:26:54;;;;;;;30.70;10.60;;;;;;;30.18;36.08;99556.48;25105;1313;3026291;-62
2022/08/08 08:29:25;;;;;;;26.80;10.00;;;;;;;30.30;36.04;99555.64;25140;1313;3026564;-58
2022/08/08 08:31:55;;;;;;;28.90;8.60;;;;;;;30.39;35.70;99557.79;25106;1313;3027030;-61
2022/08/08 08:34:25;;;;;;;19.30;7.50;;;;;;;30.45;35.30;99556.50;25216;1313;3026352;-60
2022/08/08 08:36:54;;;;;;;21.40;8.10;;;;;;;30.55;35.04;99558.01;25095;1313;3026414;-60
2022/08/08 08:39:23;;;;;;;22.60;7.80;;;;;;;30.68;34.81;99560.56;25051;1313;3027639;-62
2022/08/08 08:41:53;;;;;;;23.30;8.10;;;;;;;30.78;34.95;99561.42;25084;1313;3026419;-61
2022/08/08 08:44:24;;;;;;;34.90;9.20;;;;;;;30.91;34.82;99565.19;25083;1313;3026386;-58
2022/08/08 08:46:53;;;;;;;26.30;8.40;;;;;;;30.93;34.33;99563.06;25094;1313;3049581;-59
2022/08/08 08:49:23;;;;;;;23.30;8.30;;;;;;;30.84;33.84;99558.36;24391;1313;4407783;-62
2022/08/08 08:51:53;;;;;;;22.70;9.10;;;;;;;30.95;34.17;99554.04;25143;1313;3027476;-60
2022/08/08 08:54:22;;;;;;;21.50;7.40;;;;;;;31.10;33.90;99554.95;25098;1313;3026607;-61
2022/08/08 08:56:52;;;;;;;24.60;8.90;;;;;;;31.24;33.67;99554.95;25075;1313;3026476;-63
2022/08/08 08:59:21;;;;;;;23.90;9.20;;;;;;;31.37;33.15;99557.73;25119;1313;3053310;-63
2022/08/08 09:01:53;;;;;;;21.80;8.90;;;;;;;31.45;33.10;99556.55;25092;1313;3029204;-62
2022/08/08 09:04:28;;;;;;;22.70;9.50;;;;;;;31.57;32.84;99552.32;25079;1315;3051591;-60
2022/08/08 09:06:57;;;;;;;17.20;8.70;;;;;;;31.65;32.88;99550.13;25071;1316;3026123;-61
2022/08/08 09:09:28;;;;;;;19.60;8.70;;;;;;;31.75;32.35;99555.60;25046;1319;3026817;-62
2022/08/08 09:12:04;;;;;;;22.60;8.90;;;;;;;31.80;32.19;99552.42;25101;1313;3057200;-61
2022/08/08 09:14:34;;;;;;;28.70;10.40;;;;;;;31.95;32.10;99556.69;25102;1313;3026701;-59
2022/08/08 09:17:03;;;;;;;28.40;11.10;;;;;;;32.07;32.39;99553.13;25101;1313;3028334;-60
2022/08/08 09:19:33;;;;;;;25.70;11.40;;;;;;;32.20;33.10;99554.32;25134;1313;3026883;-60
2022/08/08 09:22:04;;;;;;;18.30;9.70;;;;;;;32.36;33.12;99558.47;25070;1313;3026638;-60
2022/08/08 09:24:34;;;;;;;26.90;10.00;;;;;;;32.51;33.12;99555.84;25107;1313;3027272;-60
2022/08/08 09:27:07;;;;;;;23.10;10.00;;;;;;;32.54;34.22;99557.17;25086;1313;3027215;-60
2022/08/08 09:29:51;;;;;;;22.40;10.10;;;;;;;32.60;34.60;99558.73;25099;1313;3053033;-58
2022/08/08 09:32:59;;;;;;;25.20;9.00;;;;;;;32.67;34.80;99558.52;25113;1313;3059014;-59
2022/08/08 09:35:28;;;;;;;17.50;8.30;;;;;;;32.74;34.77;99560.45;25036;1313;3051661;-62
2022/08/08 09:38:01;;;;;;;24.40;8.70;;;;;;;32.81;34.06;99557.66;25106;1313;3026549;-62
2022/08/08 09:40:35;;;;;;;19.80;7.90;;;;;;;32.91;33.40;99556.53;25156;1313;3052408;-61
2022/08/08 09:43:08;;;;;;;19.50;7.20;;;;;;;32.99;33.19;99559.86;25155;1313;3026937;-60
2022/08/08 09:45:45;;;;;;;21.10;7.20;;;;;;;33.03;32.86;99554.66;25065;1316;3049510;-62
2022/08/08 09:48:15;;;;;;;22.70;7.70;;;;;;;33.12;31.55;99553.11;25130;1313;3054076;-60
2022/08/08 09:50:45;;;;;;;15.50;7.40;;;;;;;33.20;30.84;99551.58;25162;1313;3026987;-63
2022/08/08 09:53:18;;;;;;;18.20;7.40;;;;;;;33.29;31.16;99553.00;25157;1313;3026943;-62
2022/08/08 09:55:47;;;;;;;15.70;6.80;;;;;;;33.38;31.42;99552.30;25078;1313;3026148;-63
2022/08/08 09:58:18;;;;;;;13.60;5.70;;;;;;;33.46;31.28;99555.52;25128;1313;3026581;-62
2022/08/08 10:00:48;;;;;;;12.90;5.40;;;;;;;33.55;30.57;99547.58;25088;1313;3056944;-62
2022/08/08 10:03:17;;;;;;;18.30;5.60;;;;;;;33.63;29.78;99547.47;25098;1313;3026440;-59
2022/08/08 10:05:46;;;;;;;16.40;5.30;;;;;;;33.68;29.89;99545.48;25098;1313;3026346;-61
2022/08/08 10:08:15;;;;;;;14.50;5.20;;;;;;;33.78;28.56;99548.09;25092;1313;3058489;-62
2022/08/08 10:10:45;;;;;;;15.70;5.20;;;;;;;33.88;28.14;99544.48;25170;1313;3026656;-59
2022/08/08 10:15:36;;;;;;;13.20;4.80;;;;;;;34.07;27.83;99543.54;31406;1318;3026416;-60
2022/08/08 10:18:05;;;;;;;13.70;4.90;;;;;;;34.29;27.92;99540.71;24870;1321;3026780;-60
2022/08/08 10:20:43;;;;;;;11.30;4.70;;;;;;;34.57;26.90;99540.86;25052;1318;3026774;-58
2022/08/08 10:23:12;;;;;;;10.60;4.30;;;;;;;34.66;26.30;99538.48;25093;1318;3057504;-59
2022/08/08 10:25:43;;;;;;;16.90;4.40;;;;;;;34.64;26.19;99538.95;24945;1318;3026622;-58
2022/08/08 10:28:15;;;;;;;11.00;4.00;;;;;;;34.59;26.53;99537.63;24374;1315;4578749;-59
2022/08/08 10:32:30;;;;;;;19.00;4.50;;;;;;;34.58;26.72;99540.94;25116;1315;3026697;-60
2022/08/08 10:33:53;;;;;;;17.00;4.80;;;;;;;34.63;26.48;99536.70;25069;1315;3071438;-60
2022/08/08 10:36:23;;;;;;;12.70;3.70;;;;;;;34.63;25.13;99536.39;25062;1315;3026704;-61
2022/08/08 10:38:52;;;;;;;9.00;3.70;;;;;;;34.69;25.35;99541.76;25052;1315;3051638;-60
2022/08/08 10:41:22;;;;;;;10.60;3.50;;;;;;;34.77;25.60;99541.00;25014;1318;3026851;-60
2022/08/08 10:43:51;;;;;;;9.10;3.50;;;;;;;34.80;24.93;99536.95;25079;1315;3027052;-58
2022/08/08 10:46:27;;;;;;;11.30;3.80;;;;;;;34.88;24.66;99534.20;25100;1315;3026542;-60
2022/08/08 10:48:56;;;;;;;17.40;3.80;;;;;;;34.94;24.60;99531.38;25063;1315;3068131;-61
2022/08/08 10:51:29;;;;;;;9.30;3.50;;;;;;;35.04;24.27;99533.36;25068;1315;3026930;-60
2022/08/08 10:53:58;;;;;;;10.40;3.80;;;;;;;35.11;23.74;99534.59;25128;1315;3028689;-59
2022/08/08 10:56:34;;;;;;;14.40;3.60;;;;;;;35.13;21.82;99529.11;25093;1315;3026509;-60
2022/08/08 10:59:08;;;;;;;9.30;2.90;;;;;;;35.19;22.06;99527.92;25140;1315;3049127;-61
2022/08/08 11:01:38;;;;;;;9.40;3.10;;;;;;;35.22;22.95;99524.23;25102;1315;3054813;-61
2022/08/08 11:04:08;;;;;;;7.70;3.30;;;;;;;35.30;23.57;99528.72;25098;1315;3026761;-59
2022/08/08 11:06:37;;;;;;;7.30;3.40;;;;;;;35.37;23.35;99526.75;25131;1315;3049179;-62
2022/08/08 11:09:09;;;;;;;10.10;3.20;;;;;;;35.47;22.61;99528.71;25164;1315;3026578;-62
2022/08/08 11:11:38;;;;;;;15.20;4.00;;;;;;;35.52;22.16;99528.61;25057;1315;3027451;-61
2022/08/08 11:14:12;;;;;;;11.20;3.50;;;;;;;35.55;22.72;99529.02;25088;1315;3026452;-61
2022/08/08 11:16:43;;;;;;;10.40;3.90;;;;;;;35.60;22.86;99527.87;25050;1315;3027310;-60
2022/08/08 11:19:12;;;;;;;12.80;3.60;;;;;;;35.63;22.88;99526.21;25088;1315;3026559;-60
2022/08/08 11:21:44;;;;;;;10.20;3.70;;;;;;;35.69;23.73;99525.45;25086;1315;3026680;-58
2022/08/08 11:24:13;;;;;;;8.00;3.20;;;;;;;35.79;23.40;99522.55;25093;1315;3049853;-59
2022/08/08 11:26:42;;;;;;;12.50;3.70;;;;;;;35.84;23.32;99526.02;25057;1315;3026909;-61
2022/08/08 11:29:11;;;;;;;12.30;3.80;;;;;;;35.88;23.03;99524.95;25019;1316;3058596;-61
2022/08/08 11:31:45;;;;;;;15.60;3.40;;;;;;;35.97;22.76;99525.09;25096;1315;3026204;-59
2022/08/08 11:34:15;;;;;;;11.00;3.00;;;;;;;36.14;21.47;99522.60;25027;1315;3052189;-62
2022/08/08 11:36:44;;;;;;;22.80;3.70;;;;;;;36.25;21.28;99521.36;25145;1315;3026352;-59
2022/08/08 11:39:14;;;;;;;8.90;2.90;;;;;;;36.31;21.55;99526.26;25084;1314;3026817;-61
2022/08/08 11:41:44;;;;;;;6.40;3.10;;;;;;;36.35;21.47;99525.48;25068;1318;3055024;-61
2022/08/08 11:44:38;;;;;;;7.00;2.90;;;;;;;36.40;21.33;99523.15;25060;1315;3059248;-61
2022/08/08 11:47:07;;;;;;;11.00;3.10;;;;;;;36.45;21.43;99523.63;25086;1315;3026849;-59
2022/08/08 11:49:37;;;;;;;10.90;3.00;;;;;;;36.49;21.02;99521.52;25081;1315;3053011;-61
2022/08/08 11:52:06;;;;;;;10.10;3.60;;;;;;;36.51;21.14;99522.46;25099;1314;3026584;-61
2022/08/08 11:54:42;;;;;;;9.80;3.40;;;;;;;36.58;20.86;99523.55;25071;1315;3027636;-62